Wetterdaten: aktuell Sonntag, 23.06.2024 10:30
Datum Zeit Temp. Dach 2 mtr. Höhe Boden Feuchte ISS Feuchte 2mtr Luftdruck Regen Wind Richtung Richtung Sonnenschein T Regen ET Solar Taupunkt Windchill Windböen Empfang
23.06.2024 10:30 19,7 °C 19,4 °C 29,4 °C 74 % 75 % 1019,4 hPa 0,0 l/m² 5,7 km/h (1 Bft) W-SW 251 ° 40 min 0 min 0,279 mm 690 W/m² 14,8 °C 19,7 °C 12,9 km/h (3 Bft) 99,16 %
23.06.2024 09:30 17,7 °C 17,2 °C 18,3 °C 78 % 81 % 1019,2 hPa 0,0 l/m² 13,7 km/h (3 Bft) W 269 ° 55 min 0 min 0,204 mm 526 W/m² 13,9 °C 17,7 °C 20,9 km/h (4 Bft) 95,83 %
23.06.2024 08:30 16,8 °C 15,6 °C 15,6 °C 84 % 87 % 1018,8 hPa 0,0 l/m² 3,6 km/h (1 Bft) SW 229 ° 60 min 0 min 0,127 mm 359 W/m² 13,4 °C 16,8 °C 9,7 km/h (2 Bft) 97,62 %
23.06.2024 07:30 15,1 °C 14,4 °C 15,0 °C 89 % 90 % 1018,4 hPa 0,0 l/m² 3,8 km/h (1 Bft) W 269 ° 55 min 0 min 0,025 mm 225 W/m² 12,8 °C 15,1 °C 9,7 km/h (2 Bft) 98,17 %
23.06.2024 06:30 13,7 °C 13,3 °C 13,3 °C 91 % 90 % 1017,9 hPa 0,0 l/m² 5,4 km/h (1 Bft) W-SW 243 ° 0 min 0 min 0,000 mm 83 W/m² 11,7 °C 13,7 °C 6,4 km/h (2 Bft) 100,00 %
23.06.2024 05:30 14,1 °C 13,9 °C 13,3 °C 89 % 89 % 1017,5 hPa 0,0 l/m² 5,4 km/h (1 Bft) W 263 ° 0 min 0 min 0,000 mm 13 W/m² 12,1 °C 14,1 °C 9,7 km/h (2 Bft) 95,00 %
23.06.2024 04:30 14,3 °C 13,9 °C 13,3 °C 89 % 88 % 1017,3 hPa 0,0 l/m² 3,6 km/h (1 Bft) W 261 ° 0 min 0 min 0,000 mm 0 W/m² 11,9 °C 14,3 °C 8,0 km/h (2 Bft) 99,07 %
23.06.2024 03:30 14,7 °C 14,4 °C 13,9 °C 88 % 88 % 1016,9 hPa 0,0 l/m² 7,0 km/h (2 Bft) W-NW 300 ° 0 min 0 min 0,000 mm 0 W/m² 12,4 °C 14,7 °C 9,7 km/h (2 Bft) 100,00 %
23.06.2024 02:30 15,7 °C 15,0 °C 14,4 °C 84 % 86 % 1016,7 hPa 0,0 l/m² 2,9 km/h (1 Bft) W-SW 240 ° 0 min 0 min 0,000 mm 0 W/m² 12,7 °C 15,7 °C 6,4 km/h (2 Bft) 98,33 %
23.06.2024 01:30 15,8 °C 15,6 °C 14,4 °C 84 % 84 % 1016,5 hPa 0,0 l/m² 3,3 km/h (1 Bft) W-SW 244 ° 0 min 0 min 0,000 mm 0 W/m² 12,9 °C 15,8 °C 4,8 km/h (1 Bft) 98,33 %
23.06.2024 00:30 16,6 °C 16,1 °C 15,0 °C 80 % 83 % 1016,1 hPa 0,0 l/m² 6,2 km/h (2 Bft) SW 217 ° 0 min 0 min 0,000 mm 0 W/m² 13,2 °C 16,6 °C 9,7 km/h (2 Bft) 100,00 %
22.06.2024 23:30 17,4 °C 16,7 °C 15,6 °C 75 % 80 % 1015,6 hPa 0,0 l/m² 10,6 km/h (2 Bft) N-NW 329 ° 0 min 0 min 0,025 mm 0 W/m² 13,2 °C 17,4 °C 12,9 km/h (3 Bft) 97,50 %
22.06.2024 22:30 18,4 °C 18,3 °C 16,7 °C 72 % 74 % 1015,2 hPa 0,0 l/m² 6,0 km/h (2 Bft) W 271 ° 5 min 0 min 0,051 mm 0 W/m² 13,6 °C 18,4 °C 11,3 km/h (2 Bft) 97,22 %
22.06.2024 21:30 19,6 °C 20,0 °C 18,9 °C 67 % 67 % 1014,6 hPa 0,0 l/m² 11,1 km/h (2 Bft) SW 231 ° 0 min 0 min 0,102 mm 14 W/m² 13,7 °C 19,6 °C 14,5 km/h (3 Bft) 100,00 %
22.06.2024 20:30 20,3 °C 20,6 °C 19,4 °C 65 % 65 % 1014,0 hPa 0,0 l/m² 10,5 km/h (2 Bft) W 273 ° 50 min 0 min 0,178 mm 75 W/m² 13,8 °C 20,3 °C 19,3 km/h (3 Bft) 100,00 %
22.06.2024 19:30 20,9 °C 21,1 °C 20,6 °C 63 % 63 % 1013,6 hPa 0,0 l/m² 6,2 km/h (2 Bft) NW 318 ° 50 min 0 min 0,279 mm 183 W/m² 13,8 °C 20,9 °C 16,1 km/h (3 Bft) 95,83 %
22.06.2024 18:30 21,7 °C 21,1 °C 21,1 °C 58 % 62 % 1013,4 hPa 0,0 l/m² 15,3 km/h (3 Bft) N-NW 327 ° 45 min 0 min 0,330 mm 330 W/m² 13,5 °C 21,7 °C 24,1 km/h (4 Bft) 100,00 %
22.06.2024 17:30 21,3 °C 21,7 °C 21,1 °C 61 % 61 % 1012,9 hPa 0,0 l/m² 16,9 km/h (3 Bft) N-NW 344 ° 50 min 0 min 0,483 mm 268 W/m² 13,8 °C 21,3 °C 27,4 km/h (4 Bft) 100,00 %
22.06.2024 16:30 20,7 °C 21,7 °C 21,1 °C 61 % 59 % 1012,7 hPa 0,0 l/m² 18,3 km/h (3 Bft) S 181 ° 55 min 0 min 0,533 mm 650 W/m² 13,3 °C 20,7 °C 30,6 km/h (5 Bft) 94,50 %
22.06.2024 15:30 20,8 °C 21,7 °C 21,1 °C 61 % 62 % 1012,4 hPa 0,0 l/m² 9,9 km/h (2 Bft) W 267 ° 55 min 0 min 0,610 mm 310 W/m² 14,1 °C 20,8 °C 24,1 km/h (4 Bft) 100,00 %
22.06.2024 14:30 20,2 °C 21,7 °C 21,7 °C 63 % 61 % 1012,3 hPa 0,0 l/m² 20,0 km/h (4 Bft) SW 214 ° 60 min 0 min 0,609 mm 793 W/m² 13,8 °C 20,2 °C 29,0 km/h (5 Bft) 100,00 %
22.06.2024 13:30 19,9 °C 21,1 °C 21,7 °C 69 % 67 % 1012,0 hPa 0,0 l/m² 23,7 km/h (4 Bft) S-SW 210 ° 50 min 0 min 0,534 mm 883 W/m² 14,7 °C 19,9 °C 37,0 km/h (5 Bft) 98,33 %
22.06.2024 12:30 19,3 °C 20,0 °C 21,1 °C 71 % 72 % 1012,0 hPa 0,0 l/m² 21,6 km/h (4 Bft) W-SW 249 ° 55 min 0 min 0,508 mm 894 W/m² 14,8 °C 19,3 °C 35,4 km/h (5 Bft) 97,50 %
22.06.2024 11:30 18,3 °C 19,4 °C 20,6 °C 73 % 71 % 1011,9 hPa 0,0 l/m² 20,9 km/h (4 Bft) SW 227 ° 30 min 0 min 0,432 mm 710 W/m² 14,0 °C 18,3 °C 37,0 km/h (5 Bft) 100,00 %
22.06.2024 11:00 17,7 °C 19,4 °C 25,0 °C 76 % 72 % 1011,9 hPa 0,0 l/m² 20,8 km/h (4 Bft) W-SW 251 ° 0 min 0 min 0,432 mm 664 W/m² 14,2 °C 17,7 °C 32,2 km/h (5 Bft) 98,32 %
_ Min-Zeit 06:25 05:15 04:00 18:20 14:55 11:00 - 01:45 - - - - - - 05:15 06:25 01:40 19:20
Minimum _ 13,6 °C 13,3 °C 13,3 °C 57 % 58 % 1011,9 hPa - 0,0 km/h (0 Bft) - - - - - - 11,5 °C 13,6 °C 1,6 km/h (1 Bft) 94,31 %
_ Max-Zeit 18:05 14:25 10:10 06:30 07:10 09:55 11:00 13:55 - - 11:00 11:00 15:05 12:10 10:10 18:05 13:55 11:25
Maximum _ 21,8 °C 21,7 °C 30,6 °C 91 % 91 % 1019,5 hPa 0,0 l/m² 29,5 km/h
W-SW (5 Bft)
- - 5 min 0 min 0,610 mm 918 W/m² 15,3 °C 21,8 °C 46,7 km/h
W-SW (6 Bft)
100,00 %
Durchschnitt _ 17,9 °C 18,1 °C 18,6 °C 75 % 75 % 1015,0 hPa #0,0 l/m² 11,7 km/h (2 Bft) W-SW - #3:30 h #0 min. #0,635 mm 129 W/m² 13,3 °C 17,9 °C 19,3 km/h (3 Bft) 98,32 %